TimeMDT,TemperatureF,Dew PointF,Humidity,Sea Level PressureIn,VisibilityMPH,Wind Direction,Wind SpeedMPH,Gust SpeedMPH,PrecipitationIn,Events,Conditions,WindDirDegrees,DateUTC
12:53 AM,53.1,44.1,71,29.82,10.0,South,23.0,-,N/A,,Clear,180,2014-04-19 06:53:00
1:53 AM,52.0,44.1,74,29.80,10.0,South,20.7,-,N/A,,Clear,180,2014-04-19 07:53:00
2:53 AM,51.8,44.6,76,29.86,10.0,South,20.7,-,N/A,,Clear,180,2014-04-19 08:53:00
3:53 AM,51.1,44.1,77,29.76,10.0,South,18.4,-,N/A,,Clear,180,2014-04-19 09:53:00
4:53 AM,48.9,44.1,83,29.78,10.0,South,18.4,-,N/A,,Clear,180,2014-04-19 10:53:00
5:53 AM,48.2,42.8,82,29.88,10.0,SSW,12.7,-,N/A,,Clear,200,2014-04-19 11:53:00
6:53 AM,48.9,42.1,77,29.82,10.0,WSW,12.7,-,N/A,,Clear,240,2014-04-19 12:53:00
7:53 AM,54.0,43.0,66,29.85,10.0,West,10.4,-,N/A,,Clear,270,2014-04-19 13:53:00
8:53 AM,61.0,44.1,54,29.84,10.0,NNW,15.0,-,N/A,,Clear,340,2014-04-19 14:53:00
9:53 AM,64.0,45.0,50,29.87,10.0,North,20.7,-,N/A,,Clear,10,2014-04-19 15:53:00
10:53 AM,64.0,45.0,50,29.90,10.0,North,21.9,28.8,N/A,,Clear,360,2014-04-19 16:53:00
11:53 AM,68.0,45.0,43,29.90,10.0,NE,20.7,31.1,N/A,,Clear,40,2014-04-19 17:53:00
12:53 PM,70.0,46.0,42,29.89,10.0,NNE,20.7,27.6,N/A,,Clear,30,2014-04-19 18:53:00
1:53 PM,70.0,46.9,44,29.89,10.0,NE,24.2,32.2,N/A,,Clear,40,2014-04-19 19:53:00
2:53 PM,71.1,46.0,41,29.91,10.0,NE,16.1,25.3,N/A,,Clear,50,2014-04-19 20:53:00
3:53 PM,71.1,48.0,44,29.91,10.0,NE,17.3,-,N/A,,Clear,50,2014-04-19 21:53:00
4:53 PM,69.1,46.9,45,29.92,10.0,NE,8.1,18.4,N/A,,Clear,50,2014-04-19 22:53:00
5:53 PM,66.9,46.0,47,29.91,10.0,NNE,13.8,-,N/A,,Partly Cloudy,30,2014-04-19 23:53:00
6:53 PM,64.9,46.9,52,29.92,10.0,NE,12.7,-,N/A,,Clear,50,2014-04-20 00:53:00
7:43 PM,61.0,48.0,62,29.99,10.0,ENE,9.2,-,0.00,Rain-Thunderstorm,Light Rain,70,2014-04-20 01:43:00
7:53 PM,60.1,48.9,67,29.95,10.0,ESE,10.4,-,0.00,Thunderstorm,Overcast,120,2014-04-20 01:53:00
8:15 PM,59.0,48.9,69,30.01,10.0,East,9.2,-,N/A,,Overcast,90,2014-04-20 02:15:00
8:53 PM,57.0,50.0,77,29.96,10.0,East,11.5,-,0.00,,Scattered Clouds,80,2014-04-20 02:53:00
9:53 PM,55.0,50.0,83,29.96,10.0,East,8.1,-,N/A,,Clear,80,2014-04-20 03:53:00
10:53 PM,51.1,46.9,86,29.95,10.0,NE,6.9,-,N/A,,Clear,50,2014-04-20 04:53:00
11:53 PM,50.0,46.9,89,29.94,10.0,NE,4.6,-,N/A,,Clear,50,2014-04-20 05:53:00